Time;durP1;ratioP1;P1;durP2;ratioP2;P2;SDS_P1;SDS_P2;PMS_P1;PMS_P2;Temp;Humidity;BMP_temperature;BMP_pressure;BME280_temperature;BME280_humidity;BME280_pressure;Samples;Min_cycle;Max_cycle;Signal;HPM_P1;HPM_P2
2022/09/14 00:00:47;;;;;;;4.03;1.30;;;19.20;99.90;;;;;;4973412;28;20030;-72
2022/09/14 00:03:14;;;;;;;4.85;1.48;;;19.20;99.90;;;;;;4974051;28;20027;-72
2022/09/14 00:05:40;;;;;;;6.10;1.67;;;19.30;99.90;;;;;;4974518;28;20130;-72
2022/09/14 00:08:06;;;;;;;4.88;1.67;;;19.20;99.90;;;;;;4975147;28;20496;-71
2022/09/14 00:10:32;;;;;;;4.55;1.33;;;19.20;99.90;;;;;;4974812;28;20509;-72
2022/09/14 00:12:59;;;;;;;4.00;1.20;;;19.20;99.90;;;;;;4974351;28;20049;-72
2022/09/14 00:15:25;;;;;;;3.65;1.52;;;19.20;99.90;;;;;;4973411;28;20388;-71
2022/09/14 00:17:51;;;;;;;5.18;1.58;;;19.10;99.90;;;;;;4973452;28;20031;-71
2022/09/14 00:20:17;;;;;;;6.53;1.60;;;19.10;99.90;;;;;;4973251;28;20041;-70
2022/09/14 00:22:43;;;;;;;7.13;1.38;;;19.10;99.90;;;;;;4973618;28;20031;-71
2022/09/14 00:25:09;;;;;;;3.35;1.27;;;19.10;99.90;;;;;;4973361;28;20105;-70
2022/09/14 00:27:34;;;;;;;4.63;1.60;;;19.10;99.90;;;;;;4973269;28;20114;-71
2022/09/14 00:30:00;;;;;;;3.85;1.30;;;19.10;99.90;;;;;;4973397;28;20471;-71
2022/09/14 00:32:26;;;;;;;4.20;1.30;;;19.10;99.90;;;;;;4973228;28;20117;-71
2022/09/14 00:34:52;;;;;;;7.88;1.70;;;19.10;99.90;;;;;;4972021;28;20041;-71
2022/09/14 00:37:18;;;;;;;5.55;1.50;;;19.10;99.90;;;;;;4973103;28;20117;-71
2022/09/14 00:39:44;;;;;;;7.68;1.65;;;19.10;99.90;;;;;;4987748;28;20031;-70
2022/09/14 00:42:15;;;;;;;7.68;1.80;;;19.10;99.90;;;;;;4973263;28;20476;-70
2022/09/14 00:44:40;;;;;;;5.65;1.50;;;19.10;99.90;;;;;;4973061;28;20023;-72
2022/09/14 00:47:07;;;;;;;7.15;1.50;;;19.10;99.90;;;;;;4972848;28;20046;-71
2022/09/14 00:49:38;;;;;;;5.45;1.25;;;19.10;99.90;;;;;;4972374;28;20403;-71
2022/09/14 00:52:16;;;;;;;6.88;1.75;;;19.10;99.90;;;;;;4971640;28;20031;-70
2022/09/14 00:54:48;;;;;;;8.13;1.50;;;19.10;99.90;;;;;;4972915;28;20391;-70
2022/09/14 00:57:16;;;;;;;4.78;1.33;;;19.10;99.90;;;;;;4972827;28;20665;-71
2022/09/14 00:59:43;;;;;;;3.92;1.20;;;19.00;99.90;;;;;;4972816;28;20225;-71
2022/09/14 01:02:13;;;;;;;3.33;1.17;;;19.10;99.90;;;;;;4972627;28;20027;-71
2022/09/14 01:04:40;;;;;;;5.72;1.25;;;19.10;99.90;;;;;;4972847;28;20027;-71
2022/09/14 01:07:21;;;;;;;4.70;1.30;;;19.00;99.90;;;;;;4972583;28;20030;-71
2022/09/14 01:10:06;;;;;;;3.63;1.27;;;19.00;99.90;;;;;;4972793;28;20105;-71
2022/09/14 01:12:41;;;;;;;6.57;1.52;;;18.90;99.90;;;;;;4972715;28;20419;-71
2022/09/14 01:15:16;;;;;;;4.90;1.50;;;18.90;99.90;;;;;;4972700;28;20037;-71
2022/09/14 01:18:11;;;;;;;5.22;1.50;;;18.80;99.90;;;;;;4971207;28;20045;-72
2022/09/14 01:20:45;;;;;;;4.60;1.25;;;18.80;99.90;;;;;;4971985;28;20482;-71
2022/09/14 01:23:26;;;;;;;10.45;1.65;;;18.80;99.90;;;;;;4972481;28;20034;-72
2022/09/14 01:26:10;;;;;;;8.65;1.42;;;18.70;99.90;;;;;;4955042;28;20031;-71
2022/09/14 01:28:48;;;;;;;7.07;1.70;;;18.80;99.90;;;;;;4972199;28;20031;-71
2022/09/14 01:31:31;;;;;;;5.70;1.70;;;18.80;99.90;;;;;;4972155;28;20035;-71
2022/09/14 01:34:09;;;;;;;7.35;1.50;;;18.80;99.90;;;;;;4972469;28;20027;-71
2022/09/14 01:36:38;;;;;;;5.50;1.40;;;18.70;99.90;;;;;;4972195;28;20034;-71
2022/09/14 01:39:04;;;;;;;;;;;18.60;99.90;;;;;;4972738;28;20030;-71
2022/09/14 01:41:31;;;;;;;3.80;1.10;;;18.70;99.90;;;;;;4972228;28;19964;-71
2022/09/14 01:44:12;;;;;;;7.00;1.50;;;18.60;99.90;;;;;;4972192;28;20039;-71
2022/09/14 01:46:43;;;;;;;7.45;1.50;;;18.70;99.90;;;;;;4973562;28;20309;-71
2022/09/14 01:49:51;;;;;;;9.52;2.13;;;18.60;99.90;;;;;;4972688;28;20607;-71
2022/09/14 01:52:25;;;;;;;7.68;2.15;;;18.60;99.90;;;;;;4969489;28;20046;-70
2022/09/14 01:55:03;;;;;;;6.57;1.75;;;18.60;99.90;;;;;;4971827;28;20050;-70
2022/09/14 01:57:54;;;;;;;10.17;2.27;;;18.60;99.90;;;;;;4972088;28;20041;-70
2022/09/14 02:00:21;;;;;;;4.63;1.63;;;18.60;99.90;;;;;;4972818;28;20038;-70
2022/09/14 02:02:59;;;;;;;6.68;1.27;;;18.50;99.90;;;;;;4976188;28;20126;-70
2022/09/14 02:05:33;;;;;;;6.70;1.83;;;18.50;99.90;;;;;;4974710;28;20051;-70
2022/09/14 02:07:59;;;;;;;7.00;1.50;;;18.50;99.90;;;;;;4975871;28;20781;-70
2022/09/14 02:10:26;;;;;;;7.28;1.52;;;18.50;99.90;;;;;;4990815;28;20320;-71
2022/09/14 02:12:53;;;;;;;11.85;1.92;;;18.50;99.90;;;;;;4977339;28;20178;-71
2022/09/14 02:15:19;;;;;;;8.55;1.60;;;18.50;99.90;;;;;;4976662;28;20034;-71
2022/09/14 02:17:46;;;;;;;6.45;1.70;;;18.50;99.90;;;;;;4977277;28;20045;-71
2022/09/14 02:20:31;;;;;;;6.45;1.60;;;18.50;99.90;;;;;;4977536;28;20035;-71
2022/09/14 02:22:57;;;;;;;9.00;1.65;;;18.40;99.90;;;;;;4975815;28;20035;-72
2022/09/14 02:25:23;;;;;;;4.53;1.67;;;18.40;99.90;;;;;;4975919;28;20039;-72
2022/09/14 02:27:49;;;;;;;8.98;2.10;;;18.40;99.90;;;;;;4975498;28;20027;-72
2022/09/14 02:30:16;;;;;;;6.68;1.88;;;18.40;99.90;;;;;;4975303;28;20023;-72
2022/09/14 02:33:01;;;;;;;8.23;1.80;;;18.30;99.90;;;;;;4974287;28;20511;-72
2022/09/14 02:35:40;;;;;;;6.35;1.33;;;18.30;99.90;;;;;;4975911;28;20038;-72
2022/09/14 02:38:36;;;;;;;4.68;1.50;;;18.30;99.90;;;;;;4975335;28;20046;-72
2022/09/14 02:41:38;;;;;;;7.38;1.83;;;18.30;99.90;;;;;;4975282;28;20060;-72
2022/09/14 02:44:23;;;;;;;6.53;1.35;;;18.30;99.90;;;;;;4973963;28;20033;-72
2022/09/14 02:47:07;;;;;;;13.43;2.60;;;18.20;99.90;;;;;;4975231;28;20034;-72
2022/09/14 02:49:48;;;;;;;9.10;2.30;;;18.20;99.90;;;;;;4973890;28;20063;-72
2022/09/14 02:52:17;;;;;;;10.43;1.90;;;18.20;99.90;;;;;;4974118;28;20026;-72
2022/09/14 02:55:04;;;;;;;9.65;2.00;;;18.20;99.90;;;;;;4975112;28;20031;-72
2022/09/14 02:57:31;;;;;;;8.05;1.60;;;18.10;99.90;;;;;;4974999;28;20368;-72
2022/09/14 02:59:57;;;;;;;8.77;1.70;;;18.10;99.90;;;;;;4974585;28;20031;-72
2022/09/14 03:02:23;;;;;;;5.85;1.55;;;18.20;99.90;;;;;;4975100;28;20034;-72
2022/09/14 03:04:49;;;;;;;9.20;1.77;;;18.20;99.90;;;;;;4974974;28;20580;-72
2022/09/14 03:07:15;;;;;;;9.75;1.90;;;18.20;99.90;;;;;;4974856;28;20146;-72
2022/09/14 03:09:41;;;;;;;11.23;1.70;;;18.20;99.90;;;;;;4974724;28;20391;-72
2022/09/14 03:12:07;;;;;;;9.00;1.80;;;18.20;99.90;;;;;;4974429;28;20074;-72
2022/09/14 03:14:33;;;;;;;8.07;2.03;;;18.10;99.90;;;;;;4974697;28;20031;-72
2022/09/14 03:16:59;;;;;;;9.75;1.60;;;18.10;99.90;;;;;;4974743;28;20043;-72
2022/09/14 03:19:24;;;;;;;8.45;2.10;;;18.00;99.90;;;;;;4989670;28;20035;-72
2022/09/14 03:21:51;;;;;;;5.82;1.58;;;18.00;99.90;;;;;;4974443;28;20446;-72
2022/09/14 03:24:17;;;;;;;9.75;2.25;;;18.00;99.90;;;;;;4973391;28;20042;-72
2022/09/14 03:26:44;;;;;;;7.15;2.08;;;17.90;99.90;;;;;;4974409;28;20035;-72
2022/09/14 03:29:10;;;;;;;8.98;2.35;;;18.00;99.90;;;;;;4974269;28;20033;-72
2022/09/14 03:31:36;;;;;;;8.45;1.90;;;18.00;99.90;;;;;;4974409;28;20031;-72
2022/09/14 03:34:02;;;;;;;9.82;2.40;;;17.90;99.90;;;;;;4973190;28;20039;-72
2022/09/14 03:36:29;;;;;;;7.30;1.90;;;18.00;99.90;;;;;;4974342;28;20034;-72
2022/09/14 03:38:57;;;;;;;5.43;1.45;;;17.90;99.90;;;;;;4972944;28;20558;-72
2022/09/14 03:41:24;;;;;;;10.57;2.00;;;18.00;99.90;;;;;;4974090;28;20432;-72
2022/09/14 03:43:50;;;;;;;6.03;1.90;;;17.90;99.90;;;;;;4974156;28;20035;-72
2022/09/14 03:46:20;;;;;;;6.72;1.50;;;17.90;99.90;;;;;;4973964;28;20030;-72
2022/09/14 03:48:47;;;;;;;7.70;2.38;;;17.90;99.90;;;;;;4974586;28;20022;-72
2022/09/14 03:51:13;;;;;;;7.82;1.80;;;17.90;99.90;;;;;;4978063;28;20066;-72
2022/09/14 03:53:40;;;;;;;4.97;1.70;;;17.90;99.90;;;;;;4978284;28;20035;-72
2022/09/14 03:56:15;;;;;;;9.32;1.67;;;17.90;99.90;;;;;;4979679;28;20031;-72
2022/09/14 03:58:41;;;;;;;8.20;1.50;;;17.90;99.90;;;;;;4977596;28;20110;-71
2022/09/14 04:01:10;;;;;;;9.13;1.90;;;17.90;99.90;;;;;;4979226;28;20031;-72
2022/09/14 04:03:37;;;;;;;;;;;18.00;99.90;;;;;;4979344;28;20027;-71
2022/09/14 04:06:04;;;;;;;10.90;2.28;;;18.00;99.90;;;;;;4977150;28;19925;-72
2022/09/14 04:08:32;;;;;;;8.13;1.98;;;18.00;99.90;;;;;;4993419;28;20027;-69
2022/09/14 04:10:58;;;;;;;4.33;1.50;;;18.00;99.90;;;;;;4978280;28;20216;-72
2022/09/14 04:13:24;;;;;;;8.98;1.60;;;18.00;99.90;;;;;;4973578;28;20498;-72
2022/09/14 04:15:58;;;;;;;4.47;1.45;;;17.90;99.90;;;;;;4972356;28;20111;-72
2022/09/14 04:18:24;;;;;;;8.88;1.70;;;17.90;99.90;;;;;;4973509;28;20487;-72
2022/09/14 04:20:58;;;;;;;6.55;1.60;;;17.90;99.90;;;;;;4973557;28;20037;-72
2022/09/14 04:23:24;;;;;;;9.88;2.88;;;17.90;99.90;;;;;;4972691;28;20512;-72
2022/09/14 04:25:51;;;;;;;7.85;1.95;;;17.90;99.90;;;;;;4973505;28;20035;-72
2022/09/14 04:28:17;;;;;;;7.75;1.77;;;17.90;99.90;;;;;;4972258;28;20030;-72
2022/09/14 04:30:43;;;;;;;6.07;1.38;;;17.90;99.90;;;;;;4973235;28;20039;-72
2022/09/14 04:33:09;;;;;;;8.30;1.75;;;17.90;99.90;;;;;;4973488;28;20385;-72
2022/09/14 04:35:36;;;;;;;8.18;1.80;;;17.90;99.90;;;;;;4973236;28;20039;-72
2022/09/14 04:38:03;;;;;;;4.85;1.25;;;17.90;99.90;;;;;;4973280;28;20358;-72
2022/09/14 04:40:29;;;;;;;8.60;1.63;;;17.90;99.90;;;;;;4973190;28;20114;-72
2022/09/14 04:42:56;;;;;;;9.15;1.90;;;17.80;99.90;;;;;;4973033;28;20039;-72
2022/09/14 04:45:22;;;;;;;7.25;1.92;;;17.80;99.90;;;;;;4973031;28;20059;-72
2022/09/14 04:47:48;;;;;;;10.10;1.73;;;17.70;99.90;;;;;;4973363;28;20050;-72
2022/09/14 04:50:14;;;;;;;8.60;1.63;;;17.70;99.90;;;;;;4972726;28;20042;-72
2022/09/14 04:52:39;;;;;;;9.02;2.58;;;17.80;99.90;;;;;;4972992;28;20033;-72
2022/09/14 04:55:06;;;;;;;7.63;1.75;;;17.70;99.90;;;;;;4971766;28;20113;-72
2022/09/14 04:57:32;;;;;;;9.75;2.40;;;17.70;99.90;;;;;;4972936;28;20038;-72
2022/09/14 04:59:58;;;;;;;7.68;1.88;;;17.60;99.90;;;;;;4972675;28;20579;-72
2022/09/14 05:02:25;;;;;;;11.88;2.70;;;17.60;99.90;;;;;;4972650;28;20114;-72
2022/09/14 05:04:51;;;;;;;9.68;2.58;;;17.60;99.90;;;;;;4973983;28;20035;-72
2022/09/14 05:07:17;;;;;;;6.85;2.10;;;17.60;99.90;;;;;;4973147;28;20031;-71
2022/09/14 05:09:43;;;;;;;7.40;1.60;;;17.50;99.90;;;;;;4973319;28;20519;-73
2022/09/14 05:12:09;;;;;;;4.97;1.67;;;17.60;99.90;;;;;;4973387;28;20446;-72
2022/09/14 05:14:35;;;;;;;15.15;2.80;;;17.60;99.90;;;;;;4972816;28;20031;-71
2022/09/14 05:17:01;;;;;;;5.75;1.90;;;17.60;99.90;;;;;;4972377;28;20027;-71
2022/09/14 05:19:27;;;;;;;6.35;1.90;;;17.60;99.90;;;;;;4971157;28;20030;-71
2022/09/14 05:21:53;;;;;;;5.57;2.00;;;17.60;99.90;;;;;;4972450;28;20476;-71
2022/09/14 05:24:19;;;;;;;9.52;2.10;;;17.60;99.90;;;;;;4987358;28;20034;-71
2022/09/14 05:26:46;;;;;;;10.05;2.28;;;17.60;99.90;;;;;;4972243;28;20034;-71
2022/09/14 05:29:14;;;;;;;7.85;2.53;;;17.60;99.90;;;;;;4972340;28;20503;-71
2022/09/14 05:31:40;;;;;;;8.93;2.70;;;17.60;99.90;;;;;;4972414;28;20479;-71
2022/09/14 05:34:07;;;;;;;11.25;3.40;;;17.60;99.90;;;;;;4971974;28;20031;-71
2022/09/14 05:36:35;;;;;;;8.52;2.55;;;17.60;99.90;;;;;;4972205;28;20122;-71
2022/09/14 05:39:02;;;;;;;5.97;1.98;;;17.60;99.90;;;;;;4972217;28;20041;-71
2022/09/14 05:41:28;;;;;;;7.72;2.05;;;17.50;99.90;;;;;;4970724;28;20034;-71
2022/09/14 05:43:53;;;;;;;8.10;2.10;;;17.50;99.90;;;;;;4972353;28;20558;-71
2022/09/14 05:46:21;;;;;;;10.93;2.75;;;17.50;99.90;;;;;;4972494;28;20043;-71
2022/09/14 05:48:50;;;;;;;7.50;2.60;;;17.50;99.90;;;;;;4971973;28;20090;-71
2022/09/14 05:51:19;;;;;;;6.53;1.77;;;17.50;99.90;;;;;;4972012;28;20043;-71
2022/09/14 05:53:51;;;;;;;9.57;2.10;;;17.50;99.90;;;;;;4972183;28;20058;-71
2022/09/14 05:56:18;;;;;;;13.27;2.83;;;17.50;99.90;;;;;;4972177;28;20052;-71
2022/09/14 05:58:45;;;;;;;8.27;1.83;;;17.50;99.90;;;;;;4972011;28;20066;-71
2022/09/14 06:01:20;;;;;;;8.52;1.88;;;17.50;99.90;;;;;;4971862;28;20031;-71
2022/09/14 06:03:47;;;;;;;12.00;2.50;;;17.40;99.90;;;;;;4970936;28;20042;-71
2022/09/14 06:06:16;;;;;;;7.60;2.00;;;17.30;99.90;;;;;;4971945;28;20546;-71
2022/09/14 06:08:42;;;;;;;10.18;2.08;;;17.40;99.90;;;;;;4972257;28;20058;-71
2022/09/14 06:11:14;;;;;;;8.20;1.77;;;17.40;99.90;;;;;;4970519;28;20027;-71
2022/09/14 06:13:41;;;;;;;4.93;1.40;;;17.40;99.90;;;;;;4971887;28;20031;-71
2022/09/14 06:16:09;;;;;;;8.70;2.08;;;17.40;99.90;;;;;;4971966;28;20039;-71
2022/09/14 06:18:36;;;;;;;7.10;2.00;;;17.40;99.90;;;;;;4971652;28;20082;-71
2022/09/14 06:21:03;;;;;;;7.70;1.90;;;17.40;99.90;;;;;;4971684;28;20046;-71
2022/09/14 06:23:30;;;;;;;8.57;1.80;;;17.40;99.90;;;;;;4971834;28;20117;-71
2022/09/14 06:25:58;;;;;;;7.72;1.83;;;17.30;99.90;;;;;;4971618;28;20051;-71
2022/09/14 06:28:25;;;;;;;6.82;2.03;;;17.30;99.90;;;;;;4971702;28;20027;-71
2022/09/14 06:30:51;;;;;;;5.22;1.98;;;17.30;99.90;;;;;;4971631;28;20030;-71
2022/09/14 06:33:18;;;;;;;7.88;2.40;;;17.30;99.90;;;;;;4986769;28;20034;-71
2022/09/14 06:35:54;;;;;;;9.05;2.30;;;17.30;99.90;;;;;;4971716;28;20031;-71
2022/09/14 06:38:20;;;;;;;10.98;2.88;;;17.30;99.90;;;;;;4970405;28;20113;-72
2022/09/14 06:40:56;;;;;;;11.93;2.75;;;17.30;99.90;;;;;;4971382;28;20460;-71
2022/09/14 06:43:24;;;;;;;9.35;2.40;;;17.30;99.90;;;;;;4971802;28;20114;-72
2022/09/14 06:46:02;;;;;;;6.55;2.60;;;17.30;99.90;;;;;;4971872;28;20035;-72
2022/09/14 06:48:31;;;;;;;10.80;2.13;;;17.30;99.90;;;;;;4975219;28;20535;-72
2022/09/14 06:50:57;;;;;;;6.00;1.95;;;17.30;99.90;;;;;;4973841;28;20101;-72
2022/09/14 06:53:23;;;;;;;9.52;2.63;;;17.30;99.90;;;;;;4978070;28;20033;-72
2022/09/14 06:55:49;;;;;;;7.82;2.22;;;17.20;99.90;;;;;;4979121;28;20038;-72
2022/09/14 06:58:15;;;;;;;6.32;2.22;;;17.20;99.90;;;;;;4978977;28;20038;-73
2022/09/14 07:00:41;;;;;;;10.07;2.95;;;17.20;99.90;;;;;;4993127;28;20035;-72
2022/09/14 07:03:13;;;;;;;8.88;2.65;;;17.20;99.90;;;;;;4977701;28;20122;-72
2022/09/14 07:05:39;;;;;;;5.97;2.40;;;17.20;99.90;;;;;;4975141;28;20027;-71
2022/09/14 07:08:05;;;;;;;10.23;2.55;;;17.20;99.90;;;;;;4974859;28;20512;-71
2022/09/14 07:10:31;;;;;;;7.70;2.60;;;17.10;99.90;;;;;;4974892;28;20031;-71
2022/09/14 07:13:00;;;;;;;7.80;2.33;;;17.20;99.90;;;;;;4989786;28;20041;-71
2022/09/14 07:15:25;;;;;;;;;;;17.20;99.90;;;;;;4975178;28;20126;-71
2022/09/14 07:17:52;;;;;;;8.35;2.50;;;17.20;99.90;;;;;;4974709;28;20001;-71
2022/09/14 07:20:18;;;;;;;8.38;2.72;;;17.20;99.90;;;;;;4977241;28;20045;-71
2022/09/14 07:22:44;;;;;;;9.68;3.40;;;17.20;99.90;;;;;;4962306;28;20065;-73
2022/09/14 07:25:10;;;;;;;10.45;3.15;;;17.20;99.90;;;;;;4979433;28;20027;-73
2022/09/14 07:27:38;;;;;;;7.45;2.63;;;17.20;99.90;;;;;;4994587;28;20085;-73
2022/09/14 07:30:06;;;;;;;8.20;2.97;;;17.20;99.90;;;;;;4979121;28;20680;-73
2022/09/14 07:32:32;;;;;;;11.32;2.55;;;17.20;99.90;;;;;;4978618;28;20475;-73
2022/09/14 07:34:58;;;;;;;9.07;2.80;;;17.20;99.90;;;;;;4993857;28;20039;-73
2022/09/14 07:37:24;;;;;;;8.68;2.88;;;17.20;99.90;;;;;;4994494;28;20475;-73
2022/09/14 07:39:50;;;;;;;9.13;3.00;;;17.10;99.90;;;;;;4979263;28;20035;-73
2022/09/14 07:42:16;;;;;;;12.82;3.70;;;17.10;99.90;;;;;;4979607;28;20027;-72
2022/09/14 07:44:42;;;;;;;10.77;3.10;;;17.20;99.90;;;;;;4979348;28;20053;-72
2022/09/14 07:47:07;;;;;;;6.75;2.60;;;17.10;99.90;;;;;;4979380;28;20054;-71
2022/09/14 07:49:33;;;;;;;7.40;2.60;;;17.00;99.90;;;;;;4978668;28;20023;-73
2022/09/14 07:51:59;;;;;;;6.40;2.53;;;17.10;99.90;;;;;;4977476;28;20398;-71
2022/09/14 07:54:25;;;;;;;8.68;2.90;;;17.10;99.90;;;;;;4994116;28;20058;-72
2022/09/14 07:56:51;;;;;;;5.53;2.10;;;17.10;99.90;;;;;;4961126;28;20094;-72
2022/09/14 07:59:17;;;;;;;8.63;2.72;;;17.10;99.90;;;;;;4977774;28;20035;-72
2022/09/14 08:01:44;;;;;;;6.38;2.17;;;17.10;99.90;;;;;;4978530;28;20039;-72
2022/09/14 08:04:09;;;;;;;10.68;2.88;;;17.10;99.90;;;;;;4993558;28;20042;-72
2022/09/14 08:06:36;;;;;;;7.65;2.60;;;17.10;99.90;;;;;;4978563;28;20041;-72
2022/09/14 08:09:06;;;;;;;8.88;3.45;;;17.10;99.90;;;;;;4979142;28;20038;-72
2022/09/14 08:11:34;;;;;;;8.00;2.42;;;17.00;99.90;;;;;;4978480;28;20054;-72
2022/09/14 08:14:05;;;;;;;7.03;2.63;;;17.00;99.90;;;;;;4978497;28;20046;-73
2022/09/14 08:16:33;;;;;;;6.80;2.28;;;17.00;99.90;;;;;;4978766;28;20027;-72
2022/09/14 08:19:01;;;;;;;8.32;3.00;;;17.00;99.90;;;;;;4977587;28;20050;-72
2022/09/14 08:21:29;;;;;;;7.45;2.60;;;17.00;99.90;;;;;;4977488;28;20041;-71
2022/09/14 08:24:00;;;;;;;7.03;2.30;;;17.00;99.90;;;;;;4977348;28;20195;-71
2022/09/14 08:26:27;;;;;;;9.07;2.60;;;17.00;99.90;;;;;;4978475;28;20451;-72
2022/09/14 08:28:54;;;;;;;7.65;2.72;;;17.00;99.90;;;;;;4978196;28;20037;-72
2022/09/14 08:31:23;;;;;;;10.38;2.60;;;17.00;99.90;;;;;;4978080;28;20046;-72
2022/09/14 08:34:01;;;;;;;12.02;2.78;;;17.10;99.90;;;;;;4978546;28;20411;-72
2022/09/14 08:36:33;;;;;;;7.27;2.20;;;17.10;99.90;;;;;;4976729;28;20050;-72
2022/09/14 08:39:00;;;;;;;7.70;2.05;;;17.10;99.90;;;;;;4977598;28;20049;-72
2022/09/14 08:41:34;;;;;;;7.32;2.17;;;17.10;99.90;;;;;;4976501;28;20027;-72
2022/09/14 08:44:08;;;;;;;7.63;2.20;;;17.10;99.90;;;;;;4977646;28;20506;-72
2022/09/14 08:46:48;;;;;;;6.72;2.10;;;17.00;99.90;;;;;;4977600;28;20066;-72
2022/09/14 08:49:45;;;;;;;5.57;2.00;;;17.10;99.90;;;;;;4977935;28;20054;-71
2022/09/14 08:52:37;;;;;;;6.18;2.03;;;17.10;99.90;;;;;;4977269;28;20571;-72
2022/09/14 08:55:36;;;;;;;4.28;1.70;;;17.10;99.90;;;;;;4977883;28;20041;-72
2022/09/14 08:58:25;;;;;;;9.68;2.30;;;17.20;99.90;;;;;;4977196;28;20045;-72
2022/09/14 09:01:22;;;;;;;6.60;1.85;;;17.10;99.90;;;;;;4975833;28;20116;-72
2022/09/14 09:04:21;;;;;;;8.50;2.28;;;17.10;99.90;;;;;;4973421;28;20432;-72
2022/09/14 09:07:05;;;;;;;6.07;2.28;;;17.10;99.90;;;;;;4971540;28;20034;-72
2022/09/14 09:09:43;;;;;;;7.35;1.85;;;17.10;99.90;;;;;;4973194;28;20480;-72
2022/09/14 09:12:19;;;;;;;8.48;2.35;;;17.10;99.90;;;;;;5003731;22;20410;-71
2022/09/14 09:14:58;;;;;;;7.32;2.13;;;17.10;99.90;;;;;;5012443;28;20037;-71
2022/09/14 09:17:32;;;;;;;5.03;1.73;;;17.10;99.90;;;;;;5012815;28;20068;-71
2022/09/14 09:20:22;;;;;;;10.05;2.30;;;17.20;99.90;;;;;;5013284;28;20099;-71
2022/09/14 09:23:19;;;;;;;6.30;2.22;;;17.20;99.90;;;;;;4995008;28;20042;-71
2022/09/14 09:26:05;;;;;;;4.78;1.95;;;17.20;99.90;;;;;;4994433;28;20038;-71
2022/09/14 09:28:32;;;;;;;7.22;2.25;;;17.20;99.90;;;;;;4994617;28;20038;-71
2022/09/14 09:31:04;;;;;;;9.45;2.30;;;17.20;99.90;;;;;;4993941;28;20034;-71
2022/09/14 09:33:50;;;;;;;7.25;2.30;;;17.10;99.90;;;;;;4993049;28;20038;-71
2022/09/14 09:36:20;;;;;;;6.15;2.50;;;17.10;99.90;;;;;;5009177;28;20022;-71
2022/09/14 09:38:46;;;;;;;6.55;2.20;;;17.10;99.90;;;;;;5009209;28;20506;-71
2022/09/14 09:41:27;;;;;;;6.95;2.40;;;17.10;99.90;;;;;;4993945;28;20034;-71
2022/09/14 09:44:08;;;;;;;8.95;2.63;;;17.10;99.90;;;;;;4994094;28;20030;-71
2022/09/14 09:46:48;;;;;;;7.88;2.38;;;17.10;99.90;;;;;;4993839;28;20108;-71
2022/09/14 09:49:32;;;;;;;5.53;2.10;;;17.10;99.90;;;;;;4993972;28;20427;-71
2022/09/14 09:52:15;;;;;;;7.00;2.88;;;17.10;99.90;;;;;;4992631;28;20037;-71
2022/09/14 09:54:50;;;;;;;7.72;2.58;;;17.10;99.90;;;;;;5025225;28;20045;-71
2022/09/14 09:57:29;;;;;;;8.43;2.83;;;17.10;99.90;;;;;;4993873;28;20037;-71
2022/09/14 10:00:09;;;;;;;6.93;2.63;;;17.10;99.90;;;;;;4994172;28;20114;-71
2022/09/14 10:02:38;;;;;;;7.57;3.10;;;17.10;99.90;;;;;;4993993;28;20029;-71
2022/09/14 10:05:17;;;;;;;7.57;2.35;;;17.20;99.90;;;;;;4993501;28;20557;-71
2022/09/14 10:07:48;;;;;;;6.25;2.50;;;17.10;99.90;;;;;;4993725;28;20033;-71
2022/09/14 10:10:20;;;;;;;7.20;2.33;;;17.10;99.90;;;;;;5008842;28;20034;-71
2022/09/14 10:12:52;;;;;;;6.90;2.42;;;17.10;99.90;;;;;;4992909;28;20124;-71
2022/09/14 10:15:24;;;;;;;5.47;2.10;;;17.10;99.90;;;;;;4993815;28;20041;-71
2022/09/14 10:17:53;;;;;;;5.95;2.30;;;17.10;99.90;;;;;;4993797;28;20395;-71
2022/09/14 10:20:24;;;;;;;6.57;2.30;;;17.10;99.90;;;;;;4993613;28;20058;-71
2022/09/14 10:22:50;;;;;;;5.68;2.38;;;17.10;99.90;;;;;;4997040;28;20089;-71
2022/09/14 10:25:16;;;;;;;9.40;3.08;;;17.10;99.90;;;;;;4997055;28;20114;-71
2022/09/14 10:27:55;;;;;;;5.90;2.53;;;17.10;99.90;;;;;;4997487;28;20073;-71
2022/09/14 10:30:22;;;;;;;5.28;2.20;;;17.10;99.90;;;;;;4995978;28;20286;-71
2022/09/14 10:33:16;;;;;;;6.28;2.30;;;17.10;99.90;;;;;;4997527;28;20558;-71
2022/09/14 10:36:03;;;;;;;7.25;2.65;;;17.10;99.90;;;;;;5012161;28;20046;-71
2022/09/14 10:39:00;;;;;;;6.15;2.50;;;17.10;99.90;;;;;;4997991;28;20034;-71
2022/09/14 10:41:26;;;;;;;6.40;2.40;;;17.10;99.90;;;;;;4997520;28;20062;-71
2022/09/14 10:44:30;;;;;;;6.18;2.60;;;17.20;99.90;;;;;;5012164;28;20027;-71
2022/09/14 10:47:04;;;;;;;5.35;3.03;;;17.20;99.90;;;;;;4996814;28;20465;-71
2022/09/14 10:49:39;;;;;;;6.95;2.55;;;17.20;99.90;;;;;;4996620;28;20034;-71
2022/09/14 10:52:19;;;;;;;6.13;2.63;;;17.30;99.90;;;;;;5011445;28;20085;-71
2022/09/14 10:54:48;;;;;;;7.03;2.95;;;17.30;99.90;;;;;;4996940;28;20058;-71
2022/09/14 10:57:17;;;;;;;;;;;17.30;99.90;;;;;;5012113;28;20053;-71
2022/09/14 10:59:43;;;;;;;5.53;2.80;;;17.30;99.90;;;;;;4996565;28;19910;-71
2022/09/14 11:02:33;;;;;;;6.22;3.00;;;17.30;99.90;;;;;;4997040;28;20022;-71
2022/09/14 11:05:11;;;;;;;7.20;2.80;;;17.20;99.90;;;;;;4996421;28;20022;-71
2022/09/14 11:07:52;;;;;;;6.25;2.95;;;17.20;99.90;;;;;;4996573;28;20019;-71
2022/09/14 11:10:26;;;;;;;7.10;3.00;;;17.20;99.90;;;;;;4996092;28;20106;-71
2022/09/14 11:13:04;;;;;;;5.82;2.83;;;17.20;99.90;;;;;;5011314;28;20439;-71
2022/09/14 11:15:54;;;;;;;8.32;3.17;;;17.20;99.90;;;;;;5011313;28;20034;-71
2022/09/14 11:18:28;;;;;;;8.25;4.20;;;17.20;99.90;;;;;;4995928;28;20162;-71
2022/09/14 11:21:25;;;;;;;4.45;2.78;;;17.20;99.90;;;;;;4994624;28;20041;-71
2022/09/14 11:24:02;;;;;;;9.95;3.60;;;17.20;99.90;;;;;;4994155;28;20053;-72
2022/09/14 11:27:02;;;;;;;6.32;3.20;;;17.20;99.90;;;;;;4992727;28;20026;-71
2022/09/14 11:29:32;;;;;;;7.85;3.85;;;17.20;99.90;;;;;;4993748;28;20026;-72
2022/09/14 11:32:04;;;;;;;8.05;4.30;;;17.20;99.90;;;;;;4993600;28;20121;-72
2022/09/14 11:34:36;;;;;;;9.88;4.38;;;17.20;99.90;;;;;;4994069;28;20038;-71
2022/09/14 11:37:15;;;;;;;5.45;3.83;;;17.20;99.90;;;;;;4993772;28;20027;-71
2022/09/14 11:39:57;;;;;;;7.03;3.70;;;17.20;99.90;;;;;;4993690;28;20494;-71
2022/09/14 11:42:39;;;;;;;6.03;3.40;;;17.20;99.90;;;;;;4992489;28;20042;-72
2022/09/14 11:45:15;;;;;;;5.90;3.28;;;17.20;99.90;;;;;;4993782;28;20034;-72
2022/09/14 11:47:51;;;;;;;5.75;3.10;;;17.20;99.90;;;;;;4993424;28;20320;-71
2022/09/14 11:50:19;;;;;;;6.13;2.78;;;17.20;99.90;;;;;;4993662;28;20050;-72
2022/09/14 11:52:47;;;;;;;5.33;2.50;;;17.10;99.90;;;;;;4993535;28;20057;-72
2022/09/14 11:55:17;;;;;;;5.78;1.83;;;17.10;99.90;;;;;;4993545;28;20143;-71
2022/09/14 11:57:45;;;;;;;3.40;1.77;;;17.10;99.90;;;;;;4993359;28;20074;-72
2022/09/14 12:00:23;;;;;;;4.50;2.00;;;17.10;99.90;;;;;;4992981;28;20476;-71
2022/09/14 12:03:04;;;;;;;3.35;1.88;;;17.00;99.90;;;;;;4993347;28;20480;-72
2022/09/14 12:05:32;;;;;;;5.47;2.50;;;17.00;99.90;;;;;;4993776;28;20030;-71
2022/09/14 12:08:00;;;;;;;4.68;2.58;;;17.00;99.90;;;;;;4993168;28;20018;-71
2022/09/14 12:10:26;;;;;;;5.80;2.10;;;17.00;99.90;;;;;;4992852;28;20483;-72
2022/09/14 12:13:16;;;;;;;5.32;1.90;;;16.90;99.90;;;;;;4992947;28;20498;-71
2022/09/14 12:15:42;;;;;;;4.13;1.63;;;16.90;99.90;;;;;;4975467;28;20455;-71
2022/09/14 12:18:08;;;;;;;2.72;1.42;;;16.90;99.90;;;;;;4993056;28;20101;-71
2022/09/14 12:20:47;;;;;;;4.88;2.10;;;16.80;99.90;;;;;;4992738;28;20065;-71
2022/09/14 12:23:25;;;;;;;4.28;1.70;;;16.80;99.90;;;;;;4992892;28;20042;-72
2022/09/14 12:26:00;;;;;;;3.95;1.80;;;16.70;99.90;;;;;;4992723;28;20054;-72
2022/09/14 12:28:39;;;;;;;3.85;1.45;;;16.70;99.90;;;;;;4992898;28;20105;-71
2022/09/14 12:31:07;;;;;;;4.75;1.73;;;16.70;99.90;;;;;;4992537;28;20484;-71
2022/09/14 12:33:33;;;;;;;3.72;1.30;;;16.70;99.90;;;;;;4992908;28;20038;-71
2022/09/14 12:36:00;;;;;;;4.15;1.50;;;16.70;99.90;;;;;;5007613;28;20107;-71
2022/09/14 12:38:29;;;;;;;3.55;1.50;;;16.70;99.90;;;;;;4992784;28;20034;-72
2022/09/14 12:40:56;;;;;;;7.82;4.47;;;16.60;99.90;;;;;;4992405;28;20554;-71
2022/09/14 12:43:34;;;;;;;5.53;2.55;;;16.60;99.90;;;;;;4992506;28;20061;-71
2022/09/14 12:46:01;;;;;;;3.35;1.67;;;16.70;99.90;;;;;;4994262;28;20030;-71
2022/09/14 12:48:46;;;;;;;5.07;1.83;;;16.70;99.90;;;;;;4994605;28;20030;-71
2022/09/14 12:51:58;;;;;;;3.20;1.65;;;16.70;99.90;;;;;;5009762;28;20062;-71
2022/09/14 12:54:51;;;;;;;3.28;1.23;;;16.70;99.90;;;;;;4995593;28;20102;-71
2022/09/14 12:57:30;;;;;;;2.03;1.00;;;16.50;99.90;;;;;;4996892;28;20042;-71
2022/09/14 13:00:04;;;;;;;3.40;1.00;;;16.50;99.90;;;;;;4993095;28;20615;-71
2022/09/14 13:03:00;;;;;;;2.53;1.38;;;16.50;99.90;;;;;;4994665;28;20030;-71
2022/09/14 13:05:28;;;;;;;2.70;1.30;;;16.60;99.90;;;;;;4994312;28;20468;-71
2022/09/14 13:07:55;;;;;;;2.58;1.20;;;16.60;99.90;;;;;;4994677;28;20038;-71
2022/09/14 13:10:29;;;;;;;3.15;1.15;;;16.60;99.90;;;;;;4994660;28;20038;-71
2022/09/14 13:12:56;;;;;;;4.55;1.55;;;16.60;99.90;;;;;;4993234;28;20034;-71